Time;durP1;ratioP1;P1;durP2;ratioP2;P2;SDS_P1;SDS_P2;PMS_P1;PMS_P2;Temp;Humidity;BMP_temperature;BMP_pressure;BME280_temperature;BME280_humidity;BME280_pressure;Samples;Min_cycle;Max_cycle;Signal;HPM_P1;HPM_P2
2021/04/20 00:02:59;;;;;;;24.35;15.88;;;;;;;8.49;68.98;98831.50;262960;1098;116333;-80
2021/04/20 00:08:03;;;;;;;26.10;16.10;;;;;;;8.42;68.81;98830.14;263530;1103;114801;-82
2021/04/20 00:13:06;;;;;;;25.40;15.30;;;;;;;8.39;69.01;98827.66;263521;1099;114774;-80
2021/04/20 00:18:09;;;;;;;23.28;14.35;;;;;;;8.40;68.62;98829.39;263078;1104;114687;-79
2021/04/20 00:23:13;;;;;;;21.25;14.35;;;;;;;8.43;69.14;98818.63;263543;1099;114952;-79
2021/04/20 00:28:24;;;;;;;21.60;13.95;;;;;;;8.39;68.75;98819.70;263560;1104;114747;-79
2021/04/20 00:33:27;;;;;;;20.60;13.65;;;;;;;8.42;68.80;98830.14;263472;1099;114896;-80
2021/04/20 00:38:30;;;;;;;25.13;14.95;;;;;;;8.42;68.96;98819.54;263123;1104;114737;-80
2021/04/20 00:43:38;;;;;;;21.68;14.38;;;;;;;8.44;69.51;98813.22;263452;1099;114321;-80
2021/04/20 00:48:41;;;;;;;25.47;15.93;;;;;;;8.46;68.94;98815.80;260742;1104;114943;-80
2021/04/20 00:53:47;;;;;;;26.55;18.33;;;;;;;8.43;68.87;98819.47;263489;1099;114760;-79
2021/04/20 00:58:50;;;;;;;26.58;18.65;;;;;;;8.47;69.67;98813.04;263512;1104;115717;-81
2021/04/20 01:03:53;;;;;;;28.13;17.98;;;;;;;8.48;69.44;98808.59;261970;1099;114729;-79
2021/04/20 01:08:57;;;;;;;27.63;18.25;;;;;;;8.47;69.60;98810.39;263464;1101;114511;-80
2021/04/20 01:14:01;;;;;;;24.50;17.53;;;;;;;8.41;69.34;98807.23;263475;1099;115096;-83
2021/04/20 01:19:07;;;;;;;24.38;17.80;;;;;;;8.33;69.62;98809.45;263335;1104;114864;-82
2021/04/20 01:24:09;;;;;;;25.50;17.70;;;;;;;8.22;69.31;98813.55;263323;1099;115089;-82
2021/04/20 01:29:13;;;;;;;24.20;16.45;;;;;;;8.12;68.92;98809.70;263504;1101;114896;-82
2021/04/20 01:34:16;;;;;;;24.43;16.90;;;;;;;8.05;68.75;98811.84;263449;1100;115101;-82
2021/04/20 01:39:19;;;;;;;21.77;16.00;;;;;;;7.99;69.11;98812.17;263394;1104;115911;-80
2021/04/20 01:44:55;;;;;;;23.83;16.30;;;;;;;7.96;69.39;98811.48;263558;1099;115186;-82
2021/04/20 01:50:36;;;;;;;;;;;;;;;7.88;69.49;98811.03;263460;1098;115739;-79
2021/04/20 01:55:39;;;;;;;28.03;16.65;;;;;;;7.76;69.48;98821.37;263585;1104;101750;-79
2021/04/20 02:00:42;;;;;;;31.75;17.08;;;;;;;7.69;69.67;98819.14;263272;1100;115186;-79
2021/04/20 02:05:45;;;;;;;24.65;16.63;;;;;;;7.63;69.16;98820.31;263538;1104;115389;-80
2021/04/20 02:10:49;;;;;;;25.20;16.85;;;;;;;7.61;69.43;98816.91;263349;1100;115121;-79
2021/04/20 02:15:53;;;;;;;30.68;19.10;;;;;;;7.61;69.59;98814.27;263384;1104;115150;-79
2021/04/20 02:20:57;;;;;;;31.53;19.25;;;;;;;7.62;69.48;98818.62;263523;1098;114914;-79
2021/04/20 02:26:05;;;;;;;31.60;19.83;;;;;;;7.59;69.40;98814.33;263459;1101;114848;-79
2021/04/20 02:31:09;;;;;;;48.53;23.35;;;;;;;7.57;69.68;98818.88;262564;1103;114909;-78
2021/04/20 02:36:13;;;;;;;44.65;24.18;;;;;;;7.48;69.38;98815.86;263496;1104;114972;-78
2021/04/20 02:41:18;;;;;;;46.88;25.60;;;;;;;7.38;70.23;98807.53;263476;1099;115092;-78
2021/04/20 02:46:21;;;;;;;42.90;26.38;;;;;;;7.39;69.98;98811.89;263487;1104;115087;-80
2021/04/20 02:51:24;;;;;;;43.78;26.13;;;;;;;7.44;69.96;98822.22;263448;1099;115613;-79
2021/04/20 02:56:30;;;;;;;47.20;26.97;;;;;;;7.49;70.60;98814.91;263525;1104;115557;-80
2021/04/20 03:01:36;;;;;;;47.05;28.18;;;;;;;7.53;70.45;98813.80;262187;1104;115367;-80
2021/04/20 03:06:43;;;;;;;43.03;25.78;;;;;;;7.57;70.04;98804.75;263439;1104;115335;-82
2021/04/20 03:12:04;;;;;;;45.85;25.08;;;;;;;7.58;70.57;98803.84;263148;1100;115378;-81
2021/04/20 03:17:07;;;;;;;55.55;24.05;;;;;;;7.56;69.88;98795.95;262330;1100;115374;-82
2021/04/20 03:22:13;;;;;;;47.25;25.40;;;;;;;7.55;70.58;98796.91;260842;1101;115031;-79
2021/04/20 03:27:16;;;;;;;48.38;25.98;;;;;;;7.59;70.23;98798.44;263388;1100;114874;-81
2021/04/20 03:32:19;;;;;;;54.75;27.08;;;;;;;7.67;70.78;98798.02;263456;1099;114834;-86
2021/04/20 03:37:49;;;;;;;53.08;27.20;;;;;;;7.73;70.77;98797.69;263040;1104;115847;-78
2021/04/20 03:42:55;;;;;;;71.23;25.90;;;;;;;7.79;70.93;98805.31;260991;1100;115084;-84
2021/04/20 03:48:09;;;;;;;80.40;26.65;;;;;;;7.77;70.92;98791.28;263146;1104;115850;-79
2021/04/20 03:53:16;;;;;;;58.20;28.43;;;;;;;7.75;70.66;98793.18;263495;1099;115008;-82
2021/04/20 03:58:21;;;;;;;58.85;28.63;;;;;;;7.79;70.92;98788.56;262119;1102;114874;-83
2021/04/20 04:03:27;;;;;;;60.88;27.08;;;;;;;7.85;70.99;98792.69;261226;1104;115328;-82
2021/04/20 04:08:35;;;;;;;66.60;29.40;;;;;;;7.94;71.46;98792.16;263471;1104;115374;-82
2021/04/20 04:13:42;;;;;;;65.98;29.38;;;;;;;8.02;71.16;98790.81;263395;1099;115293;-82
2021/04/20 04:18:49;;;;;;;65.95;29.88;;;;;;;8.05;70.92;98785.34;263462;1101;115025;-83
2021/04/20 04:23:56;;;;;;;71.80;29.80;;;;;;;8.11;71.30;98794.72;261073;1097;115400;-83
2021/04/20 04:29:01;;;;;;;63.00;30.25;;;;;;;8.09;71.59;98799.27;262493;1105;114849;-80
2021/04/20 04:34:05;;;;;;;59.90;29.95;;;;;;;8.17;71.89;98794.39;258648;1100;115240;-81
2021/04/20 04:39:15;;;;;;;65.85;31.30;;;;;;;8.34;71.66;98800.54;261432;1101;114886;-82
2021/04/20 04:44:18;;;;;;;62.33;30.58;;;;;;;8.44;71.96;98801.75;263415;1099;115797;-81
2021/04/20 04:49:22;;;;;;;65.08;29.18;;;;;;;8.46;71.68;98802.53;261724;1104;114766;-81
2021/04/20 04:54:26;;;;;;;60.90;28.53;;;;;;;8.39;71.39;98801.15;261999;1101;114852;-79
2021/04/20 04:59:30;;;;;;;55.00;26.70;;;;;;;8.27;70.88;98803.53;260071;1104;115378;-81
2021/04/20 05:04:34;;;;;;;52.38;28.08;;;;;;;8.24;70.93;98805.50;260693;1104;114764;-82
2021/04/20 05:09:37;;;;;;;54.55;28.15;;;;;;;8.25;71.53;98812.50;262941;1104;114924;-80
2021/04/20 05:14:40;;;;;;;53.60;27.08;;;;;;;8.28;71.19;98810.53;260661;1099;115151;-83
2021/04/20 05:19:44;;;;;;;49.93;26.78;;;;;;;8.28;71.53;98809.68;261647;1101;114756;-82
2021/04/20 05:24:47;;;;;;;54.00;27.80;;;;;;;8.27;71.32;98811.48;261663;1099;115516;-83
2021/04/20 05:29:50;;;;;;;47.88;25.23;;;;;;;8.22;71.34;98805.60;262932;1104;116837;-80
2021/04/20 05:34:53;;;;;;;45.80;24.93;;;;;;;8.13;70.90;98810.55;260975;1099;115004;-81
2021/04/20 05:40:03;;;;;;;44.80;25.53;;;;;;;8.09;70.95;98809.88;262558;1104;114942;-81
2021/04/20 05:45:07;;;;;;;46.35;25.20;;;;;;;8.14;71.09;98809.61;262223;1100;114911;-81
2021/04/20 05:50:17;;;;;;;52.55;27.50;;;;;;;8.25;71.48;98813.38;261948;1104;115165;-83
2021/04/20 05:55:20;;;;;;;46.35;25.88;;;;;;;8.36;71.46;98815.42;261116;1099;115006;-80
2021/04/20 06:00:24;;;;;;;50.75;25.53;;;;;;;8.38;71.14;98810.91;263111;1104;114805;-81
2021/04/20 06:05:28;;;;;;;;;;;;;;;8.48;71.00;98811.23;261923;1099;115012;-83
2021/04/20 06:10:32;;;;;;;45.78;26.03;;;;;;;8.53;71.35;98809.20;263624;1104;100989;-83
2021/04/20 06:15:36;;;;;;;43.75;25.70;;;;;;;8.64;71.42;98814.73;261528;1099;115073;-84
2021/04/20 06:20:39;;;;;;;30.68;18.40;;;;;;;8.76;71.57;98814.03;263001;1104;115189;-87
2021/04/20 06:25:44;;;;;;;41.68;25.50;;;;;;;8.89;71.08;98815.94;262015;1100;114970;-85
2021/04/20 06:30:47;;;;;;;;;;;;;;;8.96;71.31;98815.48;263494;1104;115312;-85
2021/04/20 06:35:50;;;;;;;43.15;26.00;;;;;;;9.01;71.27;98815.23;263547;1099;101062;-84
2021/04/20 06:40:56;;;;;;;37.70;24.78;;;;;;;9.08;71.20;98813.07;263201;1104;114889;-83
2021/04/20 06:46:05;;;;;;;46.47;27.53;;;;;;;9.24;71.78;98814.72;258212;1104;115272;-84
2021/04/20 06:51:28;;;;;;;44.08;25.30;;;;;;;9.31;71.31;98807.23;263204;1104;115437;-84
2021/04/20 06:56:48;;;;;;;45.28;25.55;;;;;;;9.41;71.17;98815.50;263414;1099;114878;-86
2021/04/20 07:02:26;;;;;;;58.53;28.78;;;;;;;9.59;71.32;98814.37;263379;1104;114809;-85
2021/04/20 07:07:41;;;;;;;51.48;28.98;;;;;;;9.80;71.22;98803.35;262830;1103;114838;-86
2021/04/20 07:12:47;;;;;;;49.25;26.15;;;;;;;9.95;71.41;98811.23;262920;1099;114866;-82
2021/04/20 07:18:27;;;;;;;52.43;25.50;;;;;;;10.13;71.08;98808.34;262530;1101;115016;-83
2021/04/20 07:24:08;;;;;;;40.85;23.83;;;;;;;10.23;70.71;98809.47;262031;1100;114902;-84
2021/04/20 07:29:39;;;;;;;40.18;22.63;;;;;;;10.41;70.92;98810.11;261313;1104;115527;-83
2021/04/20 07:34:51;;;;;;;39.05;22.23;;;;;;;10.58;70.71;98809.85;261832;1099;115442;-81
2021/04/20 07:40:13;;;;;;;33.50;21.37;;;;;;;10.72;70.25;98806.28;259617;1099;115529;-85
2021/04/20 07:45:24;;;;;;;37.55;20.18;;;;;;;10.83;70.14;98798.42;262008;1100;115691;-86
2021/04/20 07:50:35;;;;;;;34.43;20.77;;;;;;;10.94;69.67;98802.17;261219;1103;115536;-82
2021/04/20 07:55:54;;;;;;;29.98;20.13;;;;;;;11.01;69.09;98801.68;261089;1104;115538;-81
2021/04/20 08:01:05;;;;;;;40.05;23.15;;;;;;;11.16;70.00;98801.59;261210;1104;115144;-85
2021/04/20 08:06:21;;;;;;;37.83;22.50;;;;;;;11.30;69.15;98798.83;260941;1099;115071;-83
2021/04/20 08:11:34;;;;;;;41.98;23.25;;;;;;;11.38;68.97;98799.17;261626;1104;115028;-85
2021/04/20 08:16:56;;;;;;;37.18;23.30;;;;;;;11.52;69.02;98796.39;260976;1099;114888;-84
2021/04/20 08:22:00;;;;;;;36.55;23.10;;;;;;;11.70;68.41;98785.39;259824;1100;115136;-83
2021/04/20 08:27:13;;;;;;;41.78;23.18;;;;;;;11.87;68.53;98790.41;263046;1099;115671;-83
2021/04/20 08:32:25;;;;;;;37.58;21.77;;;;;;;11.98;68.46;98781.63;260610;1104;115810;-83
2021/04/20 08:37:42;;;;;;;39.43;22.05;;;;;;;11.99;68.09;98784.20;263099;1100;114963;-85
2021/04/20 08:42:53;;;;;;;36.60;23.00;;;;;;;12.06;68.15;98788.13;259733;1099;115262;-83
2021/04/20 08:48:32;;;;;;;37.15;22.40;;;;;;;12.14;68.16;98781.39;263446;1100;116340;-84
2021/04/20 08:53:38;;;;;;;40.33;23.23;;;;;;;12.23;67.65;98783.39;263429;1104;115260;-85
2021/04/20 08:59:06;;;;;;;30.80;21.28;;;;;;;12.37;67.80;98780.56;263455;1099;115197;-84
2021/04/20 09:04:14;;;;;;;41.38;22.78;;;;;;;12.49;67.13;98776.13;263491;1104;115310;-84
2021/04/20 09:09:19;;;;;;;27.93;19.53;;;;;;;12.51;67.23;98772.38;263206;1097;115419;-86
2021/04/20 09:14:27;;;;;;;;;;;;;;;12.60;67.13;98767.31;262377;1104;115092;-86
2021/04/20 09:19:34;;;;;;;27.08;16.15;;;;;;;12.74;66.79;98764.48;262310;1100;103066;-83
2021/04/20 09:24:52;;;;;;;22.97;15.60;;;;;;;12.96;66.72;98753.01;260032;1100;115043;-84
2021/04/20 09:29:56;;;;;;;24.55;16.13;;;;;;;13.25;66.78;98754.33;261925;1100;115135;-86
2021/04/20 09:35:00;;;;;;;17.95;11.03;;;;;;;13.45;66.33;98750.11;263388;1104;115313;-82
2021/04/20 09:40:05;;;;;;;14.50;10.27;;;;;;;13.55;65.83;98754.70;261629;1099;116067;-82
2021/04/20 09:45:31;;;;;;;15.80;10.43;;;;;;;13.61;65.60;98755.08;263162;1104;115112;-83
2021/04/20 09:50:46;;;;;;;13.68;10.05;;;;;;;13.62;64.87;98751.45;263389;1100;115545;-83
2021/04/20 09:55:58;;;;;;;20.78;10.28;;;;;;;13.68;65.05;98747.42;259813;1104;115586;-88
2021/04/20 10:01:15;;;;;;;14.10;10.65;;;;;;;13.70;64.81;98749.01;263319;1104;115558;-85
2021/04/20 10:06:36;;;;;;;20.25;11.10;;;;;;;13.73;64.62;98753.27;263510;1098;115215;-86
2021/04/20 10:11:50;;;;;;;17.00;10.53;;;;;;;13.75;63.95;98734.41;261424;1104;114910;-83
2021/04/20 10:17:01;;;;;;;14.45;9.65;;;;;;;13.79;64.08;98742.09;263325;1097;115280;-86
2021/04/20 10:22:26;;;;;;;11.20;8.05;;;;;;;13.96;64.14;98735.38;262871;1104;114989;-84
2021/04/20 10:27:33;;;;;;;11.40;7.28;;;;;;;14.15;63.52;98729.37;261636;1099;115004;-84
2021/04/20 10:32:40;;;;;;;8.48;6.23;;;;;;;14.47;63.04;98725.85;262513;1101;115634;-84
2021/04/20 10:37:50;;;;;;;8.17;6.13;;;;;;;14.76;62.64;98716.27;261839;1099;114689;-82
2021/04/20 10:42:53;;;;;;;9.75;5.83;;;;;;;15.01;62.31;98714.18;263451;1101;115305;-84
2021/04/20 10:47:57;;;;;;;9.30;5.85;;;;;;;15.13;61.41;98708.63;262672;1100;115225;-83
2021/04/20 10:53:11;;;;;;;6.88;5.40;;;;;;;15.07;60.61;98708.30;262729;1104;114438;-83
2021/04/20 10:58:21;;;;;;;10.10;5.83;;;;;;;14.95;59.99;98706.69;260960;1099;114863;-82
2021/04/20 11:03:29;;;;;;;7.90;5.43;;;;;;;14.93;59.82;98711.32;263279;1104;115405;-82
2021/04/20 11:08:43;;;;;;;6.40;5.37;;;;;;;15.27;60.34;98701.22;261271;1099;114920;-84
2021/04/20 11:13:48;;;;;;;7.78;5.70;;;;;;;15.75;59.79;98697.92;262143;1101;114514;-82
2021/04/20 11:18:58;;;;;;;7.05;5.45;;;;;;;16.18;59.47;98692.25;262065;1099;114613;-82
2021/04/20 11:24:28;;;;;;;9.23;5.33;;;;;;;16.54;58.65;98684.48;260175;1100;114446;-84
2021/04/20 11:29:43;;;;;;;8.90;5.37;;;;;;;16.59;57.62;98676.02;263024;1099;115175;-83
2021/04/20 11:34:49;;;;;;;9.90;5.28;;;;;;;16.41;57.22;98675.88;263501;1104;115147;-83
2021/04/20 11:39:56;;;;;;;12.48;7.85;;;;;;;16.08;56.34;98680.64;262890;1097;114893;-83
2021/04/20 11:45:19;;;;;;;12.25;7.28;;;;;;;15.70;56.27;98690.30;263321;1104;114715;-82
2021/04/20 11:50:26;;;;;;;14.48;7.55;;;;;;;15.41;56.55;98695.50;262576;1099;114977;-82
2021/04/20 11:55:44;;;;;;;14.10;7.13;;;;;;;15.09;57.17;98707.20;263500;1100;114823;-87
2021/04/20 12:00:58;;;;;;;13.33;6.48;;;;;;;14.58;56.91;98707.97;263042;1099;115072;-85
2021/04/20 12:06:03;;;;;;;10.48;6.98;;;;;;;14.13;57.08;98709.89;262240;1104;114816;-85
2021/04/20 12:11:08;;;;;;;8.58;5.85;;;;;;;13.75;57.41;98708.52;263000;1100;114841;-86
2021/04/20 12:16:13;;;;;;;10.48;5.88;;;;;;;13.47;58.05;98700.02;263432;1104;114391;-86
2021/04/20 12:21:27;;;;;;;13.75;6.38;;;;;;;13.29;58.37;98701.48;263221;1100;115021;-86
2021/04/20 12:26:31;;;;;;;11.78;7.40;;;;;;;13.17;59.94;98707.75;262200;1104;115040;-80
2021/04/20 12:31:36;;;;;;;10.13;7.00;;;;;;;13.11;60.44;98708.22;263416;1099;114943;-81
2021/04/20 12:36:47;;;;;;;11.95;7.43;;;;;;;13.16;61.07;98700.72;263452;1104;114757;-81
2021/04/20 12:41:52;;;;;;;11.68;6.70;;;;;;;13.31;61.40;98699.53;263072;1099;115123;-79
2021/04/20 12:46:56;;;;;;;;;;;;;;;13.51;61.64;98694.44;263181;1104;114839;-74
2021/04/20 12:52:04;;;;;;;7.13;5.55;;;;;;;13.73;61.53;98689.09;263102;1100;102071;-74
2021/04/20 12:57:12;;;;;;;9.43;6.18;;;;;;;14.19;62.26;98677.28;262911;1104;115726;-78
2021/04/20 13:02:22;;;;;;;9.30;6.13;;;;;;;15.04;62.31;98666.52;263094;1098;114966;-81
2021/04/20 13:07:27;;;;;;;9.35;5.65;;;;;;;15.85;61.83;98670.13;263455;1104;114827;-74
2021/04/20 13:12:31;;;;;;;6.48;4.80;;;;;;;16.11;60.36;98666.94;262907;1100;115147;-74
2021/04/20 13:17:35;;;;;;;6.00;4.00;;;;;;;15.81;58.77;98674.08;262658;1105;115537;-74
2021/04/20 13:22:38;;;;;;;6.60;4.08;;;;;;;15.21;57.51;98682.98;263102;1100;114676;-74
2021/04/20 13:27:52;;;;;;;4.68;3.63;;;;;;;14.69;57.74;98692.81;263061;1104;115353;-77
2021/04/20 13:32:58;;;;;;;4.10;3.10;;;;;;;14.26;58.06;98675.80;263422;1100;114750;-75
2021/04/20 13:38:02;;;;;;;3.23;2.85;;;;;;;14.02;58.41;98640.37;263134;1104;114772;-77
2021/04/20 13:43:06;;;;;;;3.43;2.60;;;;;;;13.85;58.00;98645.27;263076;1099;115014;-77
2021/04/20 13:48:09;;;;;;;3.95;2.80;;;;;;;13.80;58.62;98649.32;263475;1100;114742;-76
2021/04/20 13:53:17;;;;;;;3.28;2.65;;;;;;;13.77;58.12;98647.73;263188;1100;115494;-76
2021/04/20 13:58:26;;;;;;;3.83;2.68;;;;;;;13.77;58.26;98646.89;263180;1104;115190;-75
2021/04/20 14:03:39;;;;;;;3.55;2.93;;;;;;;13.79;58.99;98645.80;263072;1100;114707;-76
2021/04/20 14:08:59;;;;;;;5.73;3.50;;;;;;;13.80;59.49;98642.14;263196;1105;114674;-76
2021/04/20 14:14:04;;;;;;;6.15;4.35;;;;;;;13.86;59.48;98647.00;263412;1099;114712;-75
2021/04/20 14:19:07;;;;;;;4.58;3.48;;;;;;;14.07;59.32;98644.38;263469;1102;114660;-73
2021/04/20 14:24:14;;;;;;;3.75;3.30;;;;;;;14.21;59.26;98640.55;263476;1099;115033;-74
2021/04/20 14:29:18;;;;;;;4.05;3.28;;;;;;;14.32;58.88;98645.84;263254;1100;114964;-74
2021/04/20 14:34:24;;;;;;;4.30;3.40;;;;;;;14.43;58.29;98640.46;263504;1099;114973;-74
2021/04/20 14:39:35;;;;;;;4.55;3.43;;;;;;;14.51;57.69;98644.35;262206;1104;114843;-78
2021/04/20 14:44:41;;;;;;;4.87;3.80;;;;;;;14.60;58.24;98635.52;262752;1100;114724;-73
2021/04/20 14:49:49;;;;;;;6.28;3.65;;;;;;;14.64;57.95;98631.62;263400;1104;114897;-73
2021/04/20 14:54:55;;;;;;;7.53;4.97;;;;;;;14.65;57.56;98634.16;262771;1099;114914;-72
2021/04/20 14:59:59;;;;;;;6.45;3.80;;;;;;;14.70;57.46;98636.42;262930;1104;115227;-74
2021/04/20 15:05:02;;;;;;;5.35;3.78;;;;;;;14.75;57.73;98625.34;263180;1099;114884;-75
2021/04/20 15:10:13;;;;;;;5.05;3.60;;;;;;;14.76;56.57;98627.88;263500;1104;114709;-75
2021/04/20 15:15:22;;;;;;;4.53;3.48;;;;;;;14.77;56.64;98624.20;263423;1098;114809;-73
2021/04/20 15:20:28;;;;;;;5.07;3.70;;;;;;;14.78;56.32;98631.28;260989;1099;115914;-74
2021/04/20 15:25:41;;;;;;;6.95;3.48;;;;;;;14.80;56.00;98639.17;263404;1098;114641;-72
2021/04/20 15:30:54;;;;;;;4.90;4.18;;;;;;;14.83;56.05;98630.88;263415;1104;114558;-72
2021/04/20 15:36:07;;;;;;;9.75;4.40;;;;;;;14.88;56.02;98626.83;263198;1099;114982;-73
2021/04/20 15:41:11;;;;;;;6.78;4.28;;;;;;;14.90;55.78;98629.36;263444;1104;114996;-73
2021/04/20 15:46:15;;;;;;;5.50;3.65;;;;;;;14.93;55.83;98625.58;262702;1087;114980;-67
2021/04/20 15:51:22;;;;;;;4.50;3.90;;;;;;;14.90;55.70;98638.24;262210;1104;116707;-64
2021/04/20 15:56:50;;;;;;;6.00;4.50;;;;;;;14.86;55.49;98642.17;261673;1100;114631;-64
2021/04/20 16:02:13;;;;;;;5.75;3.90;;;;;;;15.00;55.50;98629.42;262097;1103;115508;-66
2021/04/20 16:14:12;;;;;;;6.87;3.60;;;;;;;15.46;54.97;98628.08;260096;1088;114925;-70
2021/04/20 16:19:20;;;;;;;5.33;3.60;;;;;;;15.50;54.61;98624.13;263478;1099;114685;-67
2021/04/20 16:24:25;;;;;;;5.88;3.60;;;;;;;15.47;54.41;98616.36;263319;1104;115424;-68
2021/04/20 16:29:30;;;;;;;7.95;3.88;;;;;;;15.40;54.09;98617.89;263420;1099;115407;-69
2021/04/20 16:34:41;;;;;;;7.10;4.40;;;;;;;15.27;54.64;98616.28;263375;1104;115392;-69
2021/04/20 16:40:05;;;;;;;8.95;4.20;;;;;;;15.13;54.15;98616.65;263455;1099;114895;-69
2021/04/20 16:45:15;;;;;;;6.98;3.83;;;;;;;15.01;53.92;98612.34;263418;1104;115184;-69
2021/04/20 16:50:52;;;;;;;10.10;4.00;;;;;;;14.85;54.39;98613.70;262949;1101;115382;-68
2021/04/20 16:56:12;;;;;;;5.88;3.90;;;;;;;14.69;54.86;98618.67;263319;1099;115169;-68
2021/04/20 17:01:38;;;;;;;6.18;3.90;;;;;;;14.56;55.33;98623.38;263141;1099;114855;-70
2021/04/20 17:07:01;;;;;;;7.25;4.35;;;;;;;14.40;55.33;98619.30;262984;1100;115464;-68
2021/04/20 17:12:33;;;;;;;9.83;4.58;;;;;;;14.25;54.75;98617.90;262694;1104;116396;-69
2021/04/20 17:18:06;;;;;;;8.65;4.60;;;;;;;14.11;54.58;98615.53;262480;1100;115227;-69
2021/04/20 17:23:32;;;;;;;21.90;6.70;;;;;;;14.02;55.18;98625.16;262582;1104;115181;-68
2021/04/20 17:29:00;;;;;;;27.23;6.63;;;;;;;13.97;54.95;98624.70;262848;1099;114977;-73
2021/04/20 17:34:35;;;;;;;31.70;6.43;;;;;;;13.88;55.16;98623.63;263245;1104;115242;-70
2021/04/20 17:40:05;;;;;;;17.75;6.30;;;;;;;13.73;55.45;98620.39;262539;1100;115261;-71
2021/04/20 17:45:21;;;;;;;21.10;6.23;;;;;;;13.59;55.54;98638.55;262767;1104;115103;-70
2021/04/20 17:50:54;;;;;;;27.80;6.55;;;;;;;13.46;55.45;98636.00;263007;1100;115447;-71
2021/04/20 17:56:09;;;;;;;22.45;6.63;;;;;;;13.32;55.85;98642.45;262946;1104;115312;-71
2021/04/20 18:01:18;;;;;;;;;;;;;;;13.16;55.81;98642.78;262558;1100;115016;-72
2021/04/20 18:06:44;;;;;;;31.73;6.98;;;;;;;13.05;55.71;98653.47;262608;1105;101147;-72
2021/04/20 18:12:21;;;;;;;21.23;7.35;;;;;;;12.99;56.45;98659.28;262628;1102;115407;-70
2021/04/20 18:17:34;;;;;;;29.10;7.78;;;;;;;12.91;56.75;98662.56;263249;1100;115245;-69
2021/04/20 18:23:02;;;;;;;24.15;7.53;;;;;;;12.81;56.84;98664.24;262504;1104;115794;-69
2021/04/20 18:28:20;;;;;;;30.88;7.88;;;;;;;12.72;57.48;98673.80;262646;1101;114905;-70
2021/04/20 18:33:42;;;;;;;21.38;6.90;;;;;;;12.66;57.11;98671.59;262710;1104;115704;-70
2021/04/20 18:38:58;;;;;;;25.75;7.10;;;;;;;12.64;58.15;98672.70;262809;1101;115575;-72
2021/04/20 18:44:19;;;;;;;22.30;7.90;;;;;;;12.59;58.20;98682.86;262439;1104;115492;-70
2021/04/20 18:49:30;;;;;;;26.00;7.15;;;;;;;12.49;58.13;98678.21;262650;1104;115842;-71
2021/04/20 18:54:54;;;;;;;24.80;7.98;;;;;;;12.43;58.70;98689.38;262655;1104;116383;-72
2021/04/20 19:00:03;;;;;;;19.23;7.10;;;;;;;12.35;58.15;98694.42;262546;1100;115522;-73
2021/04/20 19:05:19;;;;;;;23.25;7.48;;;;;;;12.27;58.37;98689.66;262734;1104;116031;-71
2021/04/20 19:10:34;;;;;;;23.93;7.73;;;;;;;12.21;58.63;98689.27;262598;1100;116381;-70
2021/04/20 19:15:59;;;;;;;24.83;9.48;;;;;;;12.14;58.93;98688.02;262617;1105;116318;-71
2021/04/20 19:21:27;;;;;;;27.70;8.40;;;;;;;12.10;58.48;98691.89;262759;1100;116432;-71
2021/04/20 19:26:37;;;;;;;22.25;9.35;;;;;;;12.03;59.15;98689.67;263261;1104;115159;-71
2021/04/20 19:32:13;;;;;;;21.95;9.20;;;;;;;12.00;58.98;98705.89;262402;1102;115662;-72
2021/04/20 19:37:32;;;;;;;;;;;;;;;11.96;58.68;98693.75;262994;1105;115268;-68
2021/04/20 19:42:50;;;;;;;19.75;9.08;;;;;;;11.83;59.24;98696.42;262680;1104;102015;-70
2021/04/20 19:47:58;;;;;;;16.68;8.48;;;;;;;11.73;59.08;98698.05;262937;1104;115235;-68
2021/04/20 19:53:06;;;;;;;27.73;9.30;;;;;;;11.68;59.65;98702.00;262671;1101;114924;-68
2021/04/20 19:58:19;;;;;;;21.68;9.83;;;;;;;11.64;59.82;98698.70;262555;1105;115255;-69
2021/04/20 20:03:28;;;;;;;20.08;8.85;;;;;;;11.59;60.40;98707.05;262754;1100;114945;-68
2021/04/20 20:08:32;;;;;;;22.63;8.75;;;;;;;11.55;60.53;98708.23;262928;1099;115346;-69
2021/04/20 20:13:45;;;;;;;29.83;9.03;;;;;;;11.56;60.88;98709.92;262769;1101;115763;-72
2021/04/20 20:18:52;;;;;;;21.58;9.03;;;;;;;11.63;61.02;98710.34;262660;1104;115125;-70
2021/04/20 20:23:57;;;;;;;35.70;9.45;;;;;;;11.67;61.17;98711.81;262960;1100;115404;-70
2021/04/20 20:29:05;;;;;;;27.97;9.57;;;;;;;11.68;61.11;98702.84;262809;1105;115782;-70
2021/04/20 20:34:11;;;;;;;29.00;10.85;;;;;;;11.66;60.72;98710.13;262986;1104;115584;-69
2021/04/20 20:39:22;;;;;;;23.63;13.30;;;;;;;11.76;60.88;98710.31;262522;1104;115351;-69
2021/04/20 20:44:36;;;;;;;27.60;13.68;;;;;;;11.82;61.41;98701.88;262750;1101;115048;-69
2021/04/20 20:49:46;;;;;;;26.73;12.35;;;;;;;11.79;61.31;98702.95;262651;1105;115719;-69
2021/04/20 20:54:51;;;;;;;26.98;12.30;;;;;;;11.70;61.79;98700.94;262500;1100;115355;-71
2021/04/20 21:00:22;;;;;;;25.55;12.20;;;;;;;11.60;62.11;98697.23;263011;1104;115092;-72
2021/04/20 21:05:31;;;;;;;27.13;11.30;;;;;;;11.51;62.64;98698.72;262727;1100;115260;-73
2021/04/20 21:10:39;;;;;;;35.03;18.80;;;;;;;11.56;62.99;98699.27;262439;1105;115413;-76
2021/04/20 21:15:47;;;;;;;33.93;15.03;;;;;;;11.65;62.63;98695.10;262504;1099;115317;-74
2021/04/20 21:21:17;;;;;;;36.65;16.98;;;;;;;11.66;62.90;98704.80;262611;1104;115714;-74
2021/04/20 21:26:34;;;;;;;32.20;17.50;;;;;;;11.60;62.13;98702.56;262966;1100;115458;-73
2021/04/20 21:31:37;;;;;;;32.38;18.10;;;;;;;11.54;62.88;98698.51;262956;1100;116048;-69
2021/04/20 21:36:41;;;;;;;34.65;17.58;;;;;;;11.45;63.07;98701.00;262921;1105;115323;-73
2021/04/20 21:41:49;;;;;;;41.15;21.53;;;;;;;11.37;62.77;98694.38;262620;1105;115626;-70
2021/04/20 21:46:58;;;;;;;41.90;25.55;;;;;;;11.39;62.49;98707.61;262673;1099;115134;-71
2021/04/20 21:52:04;;;;;;;38.93;23.88;;;;;;;11.43;62.72;98703.76;262450;1105;115583;-68
2021/04/20 21:57:33;;;;;;;;;;;;;;;11.49;62.23;98711.33;262509;1100;115078;-69
2021/04/20 22:02:53;;;;;;;43.20;25.38;;;;;;;11.54;61.45;98708.32;262535;1101;102016;-69
2021/04/20 22:07:58;;;;;;;47.55;26.68;;;;;;;11.61;61.36;98705.10;262527;1104;115525;-71
2021/04/20 22:13:04;;;;;;;45.55;27.53;;;;;;;11.64;61.17;98714.70;262674;1100;116741;-71
2021/04/20 22:18:16;;;;;;;44.63;26.38;;;;;;;11.61;60.94;98715.77;262831;1104;115029;-68
2021/04/20 22:23:23;;;;;;;45.13;28.48;;;;;;;11.53;60.36;98735.94;263127;1099;115179;-68
2021/04/20 22:28:37;;;;;;;52.98;30.30;;;;;;;11.47;60.10;98729.22;262418;1105;115968;-68
2021/04/20 22:33:47;;;;;;;53.88;28.95;;;;;;;11.41;60.46;98724.32;262500;1100;115324;-71
2021/04/20 22:39:01;;;;;;;;;;;;;;;11.35;60.85;98722.96;262555;1101;114993;-70
2021/04/20 22:44:16;;;;;;;53.53;30.15;;;;;;;11.30;60.37;98716.23;262547;1100;101493;-70
2021/04/20 22:49:48;;;;;;;50.58;30.23;;;;;;;11.27;61.00;98716.45;262704;1105;115397;-68
2021/04/20 22:54:55;;;;;;;54.28;31.15;;;;;;;11.22;60.21;98719.45;262513;1100;115272;-68
2021/04/20 23:00:14;;;;;;;50.83;28.60;;;;;;;11.21;60.21;98714.21;262600;1105;115301;-71
2021/04/20 23:05:23;;;;;;;56.88;30.78;;;;;;;11.16;60.59;98716.36;262681;1100;115473;-73
2021/04/20 23:10:32;;;;;;;50.25;29.00;;;;;;;11.13;60.19;98710.27;262594;1104;115227;-73
2021/04/20 23:15:39;;;;;;;44.85;29.10;;;;;;;11.09;59.89;98715.93;262581;1100;115301;-73
2021/04/20 23:20:58;;;;;;;45.93;27.70;;;;;;;11.02;60.41;98719.98;262596;1105;115217;-70
2021/04/20 23:26:50;;;;;;;44.65;26.08;;;;;;;10.94;60.01;98715.19;263085;1100;115359;-72
2021/04/20 23:32:12;;;;;;;37.80;24.25;;;;;;;10.91;60.50;98731.38;262461;1102;114983;-67
2021/04/20 23:37:16;;;;;;;48.70;27.23;;;;;;;10.91;60.87;98722.53;262495;1101;115221;-68
2021/04/20 23:42:19;;;;;;;45.40;25.98;;;;;;;10.92;60.62;98719.75;262562;1105;115105;-72
2021/04/20 23:47:44;;;;;;;46.35;26.70;;;;;;;10.91;60.86;98715.40;262535;1102;115716;-69